• Join FlightAware (Why Join?)
  • Login
  • US Flag 
04:04AM EDT


 

Airport Tracker/Info


-or-


 

Live Flight TrackerFlight Track Log ✈ GAO2726 ✈ 06-Jan-2014 ✈ ESSA / ARN - EFTU / TKU

Flight Track Log - Related Links

Times and Time Zones

All times are in EST time to prevent confusion due to time zone crossing. See the GAO2726 flight status page for this flight to view local times or setup timezone preferences in your user account.

Time Position Orientation Groundspeed Altitude Reporting Facility
EST Latitude Longitude Course Direction KTS MPH feet Rate Location/Type
01:15PM 59.8354 18.7678 66° East  Level Estimated
01:16PM 59.8804 18.9815 67° East  Level Estimated
01:17PM 59.9250 19.1959 67° East  Level Estimated
01:18PM 59.9693 19.4108 68° East  Level Estimated
01:19PM 60.0133 19.6262 68° East  Level Estimated
01:20PM 60.0569 19.8423 68° East  Level Estimated
01:21PM 60.1002 20.0589 68° East  Level Estimated
01:22PM 60.1431 20.2761 68° East  Level Estimated
01:23PM 60.1856 20.4938 68° East  Level Estimated
01:24PM 60.2278 20.7121 69° East  Level Estimated
01:25PM 60.2696 20.9310 69° East  Level Estimated
01:26PM 60.3111 21.1504 69° East  Level Estimated
01:27PM 60.3522 21.3704 69° East  Level Estimated
01:28PM 60.3929 21.5909 69° East  Level Estimated
01:29PM 60.4333 21.8120 70° East  Level Estimated
01:30PM 60.4733 22.0336 70° East  Level Estimated
01:31PM 60.5129 22.2558 70° East  Level Estimated
01:32PM 60.5141 22.2628 70° East  Level Estimated
01:33PM 60.5141 22.2628 334° Northwest  Level Estimated
01:34PM 60.5141 22.2628 334° Northwest  Level Estimated
01:35PM 60.5141 22.2628 334° Northwest  Level Estimated
01:36PM 60.5141 22.2628 334° Northwest  Level Estimated
01:37PM 60.5141 22.2628 334° Northwest  Level Estimated
01:38PM 60.5141 22.2628 334° Northwest  Level Estimated
01:39PM 60.5141 22.2628 334° Northwest  Level Estimated
01:40PM 60.5141 22.2628 334° Northwest  Level Estimated
01:41PM 60.5141 22.2628 334° Northwest  Level Estimated
01:42PM 60.5141 22.2628 334° Northwest  Level Estimated
01:43PM 60.5141 22.2628 334° Northwest  Level Estimated
01:44PM 60.5141 22.2628 334° Northwest  Level Estimated
01:45PM 60.5141 22.2628 334° Northwest  Level Estimated
01:46PM 60.5141 22.2628 334° Northwest  Level Estimated
01:47PM 60.5141 22.2628 334° Northwest  Level Estimated